Datos. Málaga, Centro Meteorológico

Actualizado: sábado, 29 noviembre 2014 a las 02:32 hora oficial
Ind. climatológico: 6156X -  Altitud (m): 54
Latitud36° 43' 4'' N - Longitud4° 28' 54'' O -  PosiciónVer localización
MunicipioMálaga (Málaga) - Ver predicción
Registros - de
Fecha y hora oficial

 

Temp. (°C)

 

V. vien. (km/h)

 

Dir. viento

 

Racha (km/h)

 

Dir. racha

 

Prec. (mm)

 

Presión (hPa)

 

Tend. (hPa)

 

Humedad (%)

 

29/11/2014 02:00 11.6 7 9-NoroesteNoroeste 12 8-OesteOeste 0.0 985.1 0.2 85
29/11/2014 01:00 12.0 5 8-OesteOeste 13 8-OesteOeste 0.0 985.4 0.9 84
29/11/2014 00:00 12.1 7 8-OesteOeste 14 8-OesteOeste 0.0 985.0 1.3 84
28/11/2014 23:00 12.8 5 2-NorteNorte 13 2-NorteNorte 0.0 984.9 1.0 81
28/11/2014 22:00 13.3 4 2-NorteNorte 8 3-NordesteNordeste 0.0 984.5 1.1 80
28/11/2014 21:00 13.7 0 1-CalmaCalma 13 3-NordesteNordeste 0.0 983.7 0.8 78
28/11/2014 20:00 14.4 5 4-EsteEste 13 3-NordesteNordeste 0.0 983.9 1.4 81
28/11/2014 19:00 15.2 3 5-SudesteSudeste 17 7-SudoesteSudoeste 0.0 983.4 1.7 76
28/11/2014 18:00 15.9 8 6-SurSur 14 6-SurSur 0.0 982.9 1.3 74
28/11/2014 17:00 16.6 9 6-SurSur 15 6-SurSur 0.0 982.5 1.3 73
28/11/2014 16:00 16.6 6 5-SudesteSudeste 18 4-EsteEste 0.0 981.7 -0.1 73
28/11/2014 15:00 16.7 9 4-EsteEste 16 4-EsteEste 0.0 981.6 -0.8 82
28/11/2014 14:00 16.4 8 4-EsteEste 21 4-EsteEste 0.0 981.2 -0.9 84
28/11/2014 13:00 15.7 8 4-EsteEste 18 4-EsteEste 0.0 981.8 0.3 94
28/11/2014 12:00 14.1 5 4-EsteEste 23 6-SurSur 0.9 982.4 1.3 96
28/11/2014 11:00 14.7 15 5-SudesteSudeste 31 5-SudesteSudeste 2.0 982.1 1.8 94
28/11/2014 10:00 15.1 11 5-SudesteSudeste 21 5-SudesteSudeste 0.4 981.5 0.9 93
28/11/2014 09:00 14.6 11 4-EsteEste 44 4-EsteEste 0.1 981.1 0.0 96
28/11/2014 08:00 14.5 23 5-SudesteSudeste 54 5-SudesteSudeste 7.2 980.3 -0.8 95
28/11/2014 07:00 14.0 26 5-SudesteSudeste 64 5-SudesteSudeste 3.1 980.6 -3.1 96
28/11/2014 06:00 14.3 30 5-SudesteSudeste 60 4-EsteEste 6.7 981.1 -4.5 97
28/11/2014 05:00 14.3 32 4-EsteEste 62 5-SudesteSudeste 2.4 981.1 -5.9 97
28/11/2014 04:00 14.1 23 4-EsteEste 37 4-EsteEste 1.6 983.7 -5.1 97
28/11/2014 03:00 13.9 17 5-SudesteSudeste 31 4-EsteEste 1.2 985.6 -3.6 97
First Page First Page First Page Last Page
Lineas por página
Página   de  
Compartir:  
En esta página podrá acceder, en forma gráfica y en tabla, a las observaciones horarias de las últimas 24 horas, así como a los valores extremos y acumulados desde las 00 horas del día hasta la hora de actualización indicada, obtenidos en la red de estaciones de AEMET. También podrá acceder a los resúmenes diarios de estas estaciones en los últimos 7 días.

En el mapa aparecen estaciones con valor númerico y otras representadas por un punto. En las primeras, al pasar el ratón, aparece un desplegable con la información completa de la estación. Las estaciones representadas por un punto son estaciones de la red climatológica, con transmisión de datos superior a la hora, por lo que al seleccionarlas pueden no aparecer los últimos datos.

Los datos presentados han sido únicamente sometidos a controles automáticos de calidad en tiempo real, por lo que no puede garantizarse la ausencia de errores.
© AEMET. Autorizado el uso de la información y su reproducción citando a AEMET como autora de la misma.